sensor_id;sensor_type;location;lat;lon;timestamp;P1;durP1;ratioP1;P2;durP2;ratioP2
17662;SDS011;8950;56.892;15.090;2023-06-26T00:02:22;5.68;;;5.18;;
17662;SDS011;8950;56.892;15.090;2023-06-26T00:04:48;6.00;;;5.50;;
17662;SDS011;8950;56.892;15.090;2023-06-26T00:07:18;6.38;;;5.75;;
17662;SDS011;8950;56.892;15.090;2023-06-26T00:09:46;5.78;;;5.25;;
17662;SDS011;8950;56.892;15.090;2023-06-26T00:12:12;7.68;;;5.80;;
17662;SDS011;8950;56.892;15.090;2023-06-26T00:14:38;6.65;;;5.95;;
17662;SDS011;8950;56.892;15.090;2023-06-26T00:17:05;5.78;;;5.20;;
17662;SDS011;8950;56.892;15.090;2023-06-26T00:19:31;6.32;;;5.80;;
17662;SDS011;8950;56.892;15.090;2023-06-26T00:21:58;5.80;;;5.30;;
17662;SDS011;8950;56.892;15.090;2023-06-26T00:24:24;5.78;;;5.30;;
17662;SDS011;8950;56.892;15.090;2023-06-26T00:26:52;5.97;;;5.47;;
17662;SDS011;8950;56.892;15.090;2023-06-26T00:29:19;6.10;;;5.55;;
17662;SDS011;8950;56.892;15.090;2023-06-26T00:31:45;6.15;;;5.63;;
17662;SDS011;8950;56.892;15.090;2023-06-26T00:34:11;6.57;;;5.90;;
17662;SDS011;8950;56.892;15.090;2023-06-26T00:36:39;5.82;;;5.18;;
17662;SDS011;8950;56.892;15.090;2023-06-26T00:39:08;5.65;;;4.97;;
17662;SDS011;8950;56.892;15.090;2023-06-26T00:41:35;5.20;;;4.80;;
17662;SDS011;8950;56.892;15.090;2023-06-26T00:44:03;5.50;;;5.00;;
17662;SDS011;8950;56.892;15.090;2023-06-26T00:46:30;5.43;;;5.03;;
17662;SDS011;8950;56.892;15.090;2023-06-26T00:48:56;5.88;;;5.38;;
17662;SDS011;8950;56.892;15.090;2023-06-26T00:51:24;5.80;;;5.40;;
17662;SDS011;8950;56.892;15.090;2023-06-26T00:53:51;5.70;;;5.30;;
17662;SDS011;8950;56.892;15.090;2023-06-26T00:56:18;6.35;;;5.60;;
17662;SDS011;8950;56.892;15.090;2023-06-26T00:58:45;5.70;;;5.20;;
17662;SDS011;8950;56.892;15.090;2023-06-26T01:01:13;5.10;;;4.78;;
17662;SDS011;8950;56.892;15.090;2023-06-26T01:03:41;5.60;;;5.20;;
17662;SDS011;8950;56.892;15.090;2023-06-26T01:06:07;5.50;;;5.00;;
17662;SDS011;8950;56.892;15.090;2023-06-26T01:08:36;5.35;;;5.00;;
17662;SDS011;8950;56.892;15.090;2023-06-26T01:11:03;5.13;;;4.63;;
17662;SDS011;8950;56.892;15.090;2023-06-26T01:13:29;6.78;;;4.90;;
17662;SDS011;8950;56.892;15.090;2023-06-26T01:15:56;5.82;;;4.38;;
17662;SDS011;8950;56.892;15.090;2023-06-26T01:18:25;5.63;;;5.03;;
17662;SDS011;8950;56.892;15.090;2023-06-26T01:20:51;5.32;;;4.93;;
17662;SDS011;8950;56.892;15.090;2023-06-26T01:23:20;5.25;;;4.85;;
17662;SDS011;8950;56.892;15.090;2023-06-26T01:25:53;6.57;;;5.00;;
17662;SDS011;8950;56.892;15.090;2023-06-26T01:28:23;5.50;;;4.93;;
17662;SDS011;8950;56.892;15.090;2023-06-26T01:30:50;5.13;;;4.72;;
17662;SDS011;8950;56.892;15.090;2023-06-26T01:33:17;4.90;;;4.60;;
17662;SDS011;8950;56.892;15.090;2023-06-26T01:35:43;6.97;;;5.07;;
17662;SDS011;8950;56.892;15.090;2023-06-26T01:38:13;5.18;;;4.78;;
17662;SDS011;8950;56.892;15.090;2023-06-26T01:40:40;5.05;;;4.60;;
17662;SDS011;8950;56.892;15.090;2023-06-26T01:43:18;5.15;;;4.75;;
17662;SDS011;8950;56.892;15.090;2023-06-26T01:45:49;5.03;;;4.57;;
17662;SDS011;8950;56.892;15.090;2023-06-26T01:48:16;4.88;;;4.25;;
17662;SDS011;8950;56.892;15.090;2023-06-26T01:50:45;5.20;;;4.80;;
17662;SDS011;8950;56.892;15.090;2023-06-26T01:53:12;4.80;;;4.28;;
17662;SDS011;8950;56.892;15.090;2023-06-26T01:55:40;5.25;;;4.75;;
17662;SDS011;8950;56.892;15.090;2023-06-26T01:58:07;6.55;;;5.13;;
17662;SDS011;8950;56.892;15.090;2023-06-26T02:00:34;4.88;;;4.43;;
17662;SDS011;8950;56.892;15.090;2023-06-26T02:03:03;5.07;;;4.68;;
17662;SDS011;8950;56.892;15.090;2023-06-26T02:05:31;4.97;;;4.57;;
17662;SDS011;8950;56.892;15.090;2023-06-26T02:07:58;4.90;;;4.50;;
17662;SDS011;8950;56.892;15.090;2023-06-26T02:10:26;4.70;;;4.30;;
17662;SDS011;8950;56.892;15.090;2023-06-26T02:12:52;4.90;;;4.50;;
17662;SDS011;8950;56.892;15.090;2023-06-26T02:15:19;5.05;;;4.65;;
17662;SDS011;8950;56.892;15.090;2023-06-26T02:17:45;4.47;;;4.18;;
17662;SDS011;8950;56.892;15.090;2023-06-26T02:20:14;4.65;;;4.35;;
17662;SDS011;8950;56.892;15.090;2023-06-26T02:22:41;4.25;;;3.75;;
17662;SDS011;8950;56.892;15.090;2023-06-26T02:25:07;4.40;;;3.92;;
17662;SDS011;8950;56.892;15.090;2023-06-26T02:27:34;4.40;;;4.00;;
17662;SDS011;8950;56.892;15.090;2023-06-26T02:30:00;4.63;;;4.22;;
17662;SDS011;8950;56.892;15.090;2023-06-26T02:32:27;4.72;;;4.43;;
17662;SDS011;8950;56.892;15.090;2023-06-26T02:34:53;5.78;;;4.20;;
17662;SDS011;8950;56.892;15.090;2023-06-26T02:37:21;4.95;;;4.55;;
17662;SDS011;8950;56.892;15.090;2023-06-26T02:39:47;4.72;;;4.35;;
17662;SDS011;8950;56.892;15.090;2023-06-26T02:42:14;4.70;;;4.40;;
17662;SDS011;8950;56.892;15.090;2023-06-26T02:44:40;4.82;;;4.50;;
17662;SDS011;8950;56.892;15.090;2023-06-26T02:47:07;4.80;;;4.40;;
17662;SDS011;8950;56.892;15.090;2023-06-26T02:49:33;4.97;;;4.57;;
17662;SDS011;8950;56.892;15.090;2023-06-26T02:52:00;4.97;;;4.57;;
17662;SDS011;8950;56.892;15.090;2023-06-26T02:54:27;4.80;;;4.45;;
17662;SDS011;8950;56.892;15.090;2023-06-26T02:56:54;5.10;;;4.70;;
17662;SDS011;8950;56.892;15.090;2023-06-26T02:59:20;4.97;;;4.65;;
17662;SDS011;8950;56.892;15.090;2023-06-26T03:01:46;5.20;;;4.80;;
17662;SDS011;8950;56.892;15.090;2023-06-26T03:04:13;5.93;;;5.10;;
17662;SDS011;8950;56.892;15.090;2023-06-26T03:06:40;5.57;;;5.07;;
17662;SDS011;8950;56.892;15.090;2023-06-26T03:09:07;5.55;;;5.05;;
17662;SDS011;8950;56.892;15.090;2023-06-26T03:11:35;4.90;;;4.40;;
17662;SDS011;8950;56.892;15.090;2023-06-26T03:14:01;5.22;;;4.82;;
17662;SDS011;8950;56.892;15.090;2023-06-26T03:16:28;5.45;;;4.90;;
17662;SDS011;8950;56.892;15.090;2023-06-26T03:18:54;4.90;;;4.50;;
17662;SDS011;8950;56.892;15.090;2023-06-26T03:21:21;5.25;;;4.75;;
17662;SDS011;8950;56.892;15.090;2023-06-26T03:23:47;5.15;;;4.75;;
17662;SDS011;8950;56.892;15.090;2023-06-26T03:26:13;4.70;;;4.40;;
17662;SDS011;8950;56.892;15.090;2023-06-26T03:28:41;4.43;;;4.13;;
17662;SDS011;8950;56.892;15.090;2023-06-26T03:31:08;4.80;;;4.40;;
17662;SDS011;8950;56.892;15.090;2023-06-26T03:33:34;4.80;;;4.40;;
17662;SDS011;8950;56.892;15.090;2023-06-26T03:36:01;5.15;;;4.78;;
17662;SDS011;8950;56.892;15.090;2023-06-26T03:38:27;5.07;;;4.68;;
17662;SDS011;8950;56.892;15.090;2023-06-26T03:40:54;4.97;;;4.57;;
17662;SDS011;8950;56.892;15.090;2023-06-26T03:43:20;5.38;;;4.90;;
17662;SDS011;8950;56.892;15.090;2023-06-26T03:45:48;5.20;;;4.80;;
17662;SDS011;8950;56.892;15.090;2023-06-26T03:48:14;5.10;;;4.70;;
17662;SDS011;8950;56.892;15.090;2023-06-26T03:50:40;5.32;;;4.82;;
17662;SDS011;8950;56.892;15.090;2023-06-26T03:53:07;5.38;;;4.90;;
17662;SDS011;8950;56.892;15.090;2023-06-26T03:55:33;5.32;;;4.93;;
17662;SDS011;8950;56.892;15.090;2023-06-26T03:58:00;5.50;;;5.10;;
17662;SDS011;8950;56.892;15.090;2023-06-26T04:00:26;7.60;;;6.38;;
17662;SDS011;8950;56.892;15.090;2023-06-26T04:02:55;6.70;;;6.15;;
17662;SDS011;8950;56.892;15.090;2023-06-26T04:05:22;6.63;;;6.13;;
17662;SDS011;8950;56.892;15.090;2023-06-26T04:07:49;6.72;;;6.13;;
17662;SDS011;8950;56.892;15.090;2023-06-26T04:10:16;6.53;;;6.03;;
17662;SDS011;8950;56.892;15.090;2023-06-26T04:12:42;6.78;;;6.10;;
17662;SDS011;8950;56.892;15.090;2023-06-26T04:15:09;7.40;;;6.70;;
17662;SDS011;8950;56.892;15.090;2023-06-26T04:17:35;6.35;;;5.85;;
17662;SDS011;8950;56.892;15.090;2023-06-26T04:20:04;6.05;;;5.38;;
17662;SDS011;8950;56.892;15.090;2023-06-26T04:22:32;6.32;;;5.82;;
17662;SDS011;8950;56.892;15.090;2023-06-26T04:24:58;6.00;;;5.50;;
17662;SDS011;8950;56.892;15.090;2023-06-26T04:27:24;6.40;;;5.85;;
17662;SDS011;8950;56.892;15.090;2023-06-26T04:29:51;6.43;;;5.50;;
17662;SDS011;8950;56.892;15.090;2023-06-26T04:32:17;6.70;;;6.10;;
17662;SDS011;8950;56.892;15.090;2023-06-26T04:34:43;6.68;;;6.18;;
17662;SDS011;8950;56.892;15.090;2023-06-26T04:37:11;6.90;;;6.20;;
17662;SDS011;8950;56.892;15.090;2023-06-26T04:39:41;6.18;;;5.68;;
17662;SDS011;8950;56.892;15.090;2023-06-26T04:42:08;6.53;;;5.82;;
17662;SDS011;8950;56.892;15.090;2023-06-26T04:44:34;5.78;;;5.18;;
17662;SDS011;8950;56.892;15.090;2023-06-26T04:47:02;6.47;;;5.97;;
17662;SDS011;8950;56.892;15.090;2023-06-26T04:49:29;7.75;;;6.65;;
17662;SDS011;8950;56.892;15.090;2023-06-26T04:51:56;6.18;;;5.78;;
17662;SDS011;8950;56.892;15.090;2023-06-26T04:54:27;6.63;;;6.07;;
17662;SDS011;8950;56.892;15.090;2023-06-26T04:56:54;6.57;;;5.80;;
17662;SDS011;8950;56.892;15.090;2023-06-26T04:59:20;6.30;;;5.90;;
17662;SDS011;8950;56.892;15.090;2023-06-26T05:01:47;7.20;;;6.38;;
17662;SDS011;8950;56.892;15.090;2023-06-26T05:04:14;5.90;;;5.50;;
17662;SDS011;8950;56.892;15.090;2023-06-26T05:06:40;5.65;;;5.22;;
17662;SDS011;8950;56.892;15.090;2023-06-26T05:09:07;5.60;;;5.20;;
17662;SDS011;8950;56.892;15.090;2023-06-26T05:11:35;5.50;;;5.10;;
17662;SDS011;8950;56.892;15.090;2023-06-26T05:14:01;6.07;;;5.53;;
17662;SDS011;8950;56.892;15.090;2023-06-26T05:16:28;8.40;;;5.43;;
17662;SDS011;8950;56.892;15.090;2023-06-26T05:18:54;5.47;;;5.07;;
17662;SDS011;8950;56.892;15.090;2023-06-26T05:21:21;5.63;;;5.20;;
17662;SDS011;8950;56.892;15.090;2023-06-26T05:23:47;5.60;;;5.10;;
17662;SDS011;8950;56.892;15.090;2023-06-26T05:26:14;6.35;;;5.85;;
17662;SDS011;8950;56.892;15.090;2023-06-26T05:28:43;6.10;;;5.60;;
17662;SDS011;8950;56.892;15.090;2023-06-26T05:31:13;5.43;;;5.00;;
17662;SDS011;8950;56.892;15.090;2023-06-26T05:33:39;5.60;;;5.10;;
17662;SDS011;8950;56.892;15.090;2023-06-26T05:36:09;5.90;;;5.28;;
17662;SDS011;8950;56.892;15.090;2023-06-26T05:38:36;6.18;;;5.68;;
17662;SDS011;8950;56.892;15.090;2023-06-26T05:41:02;6.00;;;5.50;;
17662;SDS011;8950;56.892;15.090;2023-06-26T05:43:29;5.45;;;5.05;;
17662;SDS011;8950;56.892;15.090;2023-06-26T05:45:57;5.95;;;5.45;;
17662;SDS011;8950;56.892;15.090;2023-06-26T05:48:23;5.68;;;5.18;;
17662;SDS011;8950;56.892;15.090;2023-06-26T05:50:50;5.82;;;5.32;;
17662;SDS011;8950;56.892;15.090;2023-06-26T05:53:17;5.90;;;5.50;;
17662;SDS011;8950;56.892;15.090;2023-06-26T05:55:43;5.57;;;5.18;;
17662;SDS011;8950;56.892;15.090;2023-06-26T05:58:10;5.93;;;5.32;;
17662;SDS011;8950;56.892;15.090;2023-06-26T06:00:37;5.55;;;4.97;;
17662;SDS011;8950;56.892;15.090;2023-06-26T06:03:05;6.05;;;5.50;;
17662;SDS011;8950;56.892;15.090;2023-06-26T06:05:32;5.63;;;5.22;;
17662;SDS011;8950;56.892;15.090;2023-06-26T06:07:58;5.97;;;5.47;;
17662;SDS011;8950;56.892;15.090;2023-06-26T06:10:25;5.20;;;4.78;;
17662;SDS011;8950;56.892;15.090;2023-06-26T06:12:51;5.32;;;4.85;;
17662;SDS011;8950;56.892;15.090;2023-06-26T06:15:19;5.55;;;5.05;;
17662;SDS011;8950;56.892;15.090;2023-06-26T06:17:45;5.05;;;4.53;;
17662;SDS011;8950;56.892;15.090;2023-06-26T06:20:14;5.82;;;5.25;;
17662;SDS011;8950;56.892;15.090;2023-06-26T06:22:40;5.15;;;4.60;;
17662;SDS011;8950;56.892;15.090;2023-06-26T06:25:07;5.60;;;5.10;;
17662;SDS011;8950;56.892;15.090;2023-06-26T06:27:33;5.47;;;5.00;;
17662;SDS011;8950;56.892;15.090;2023-06-26T06:30:00;4.82;;;4.43;;
17662;SDS011;8950;56.892;15.090;2023-06-26T06:32:26;5.25;;;4.85;;
17662;SDS011;8950;56.892;15.090;2023-06-26T06:34:53;5.57;;;5.18;;
17662;SDS011;8950;56.892;15.090;2023-06-26T06:37:20;5.53;;;5.13;;
17662;SDS011;8950;56.892;15.090;2023-06-26T06:39:47;5.75;;;5.15;;
17662;SDS011;8950;56.892;15.090;2023-06-26T06:42:13;4.93;;;4.53;;
17662;SDS011;8950;56.892;15.090;2023-06-26T06:44:40;4.75;;;4.45;;
17662;SDS011;8950;56.892;15.090;2023-06-26T06:47:06;5.40;;;4.90;;
17662;SDS011;8950;56.892;15.090;2023-06-26T06:49:33;5.38;;;4.80;;
17662;SDS011;8950;56.892;15.090;2023-06-26T06:51:59;5.47;;;5.07;;
17662;SDS011;8950;56.892;15.090;2023-06-26T06:54:27;4.97;;;4.57;;
17662;SDS011;8950;56.892;15.090;2023-06-26T06:56:53;4.65;;;4.32;;
17662;SDS011;8950;56.892;15.090;2023-06-26T06:59:20;5.10;;;4.70;;
17662;SDS011;8950;56.892;15.090;2023-06-26T07:01:46;5.60;;;5.18;;
17662;SDS011;8950;56.892;15.090;2023-06-26T07:04:13;5.18;;;4.68;;
17662;SDS011;8950;56.892;15.090;2023-06-26T07:06:40;5.30;;;4.90;;
17662;SDS011;8950;56.892;15.090;2023-06-26T07:09:06;4.68;;;4.38;;
17662;SDS011;8950;56.892;15.090;2023-06-26T07:11:34;5.50;;;5.00;;
17662;SDS011;8950;56.892;15.090;2023-06-26T07:14:00;5.22;;;4.82;;
17662;SDS011;8950;56.892;15.090;2023-06-26T07:16:27;5.00;;;4.60;;
17662;SDS011;8950;56.892;15.090;2023-06-26T07:18:53;5.45;;;4.95;;
17662;SDS011;8950;56.892;15.090;2023-06-26T07:21:20;5.15;;;4.72;;
17662;SDS011;8950;56.892;15.090;2023-06-26T07:23:47;8.32;;;5.60;;
17662;SDS011;8950;56.892;15.090;2023-06-26T07:26:14;6.32;;;4.97;;
17662;SDS011;8950;56.892;15.090;2023-06-26T07:28:42;12.73;;;5.18;;
17662;SDS011;8950;56.892;15.090;2023-06-26T07:31:08;8.88;;;5.35;;
17662;SDS011;8950;56.892;15.090;2023-06-26T07:33:35;4.80;;;4.40;;
17662;SDS011;8950;56.892;15.090;2023-06-26T07:36:01;6.85;;;4.82;;
17662;SDS011;8950;56.892;15.090;2023-06-26T07:38:28;5.28;;;4.78;;
17662;SDS011;8950;56.892;15.090;2023-06-26T07:40:54;5.47;;;5.07;;
17662;SDS011;8950;56.892;15.090;2023-06-26T07:43:21;5.63;;;5.13;;
17662;SDS011;8950;56.892;15.090;2023-06-26T07:45:49;5.60;;;5.00;;
17662;SDS011;8950;56.892;15.090;2023-06-26T07:48:18;5.35;;;4.93;;
17662;SDS011;8950;56.892;15.090;2023-06-26T07:50:44;4.95;;;4.55;;
17662;SDS011;8950;56.892;15.090;2023-06-26T07:53:11;4.57;;;4.18;;
17662;SDS011;8950;56.892;15.090;2023-06-26T07:55:37;7.60;;;4.95;;
17662;SDS011;8950;56.892;15.090;2023-06-26T07:58:03;6.43;;;4.75;;
17662;SDS011;8950;56.892;15.090;2023-06-26T08:00:30;5.80;;;4.80;;
17662;SDS011;8950;56.892;15.090;2023-06-26T08:02:58;5.40;;;4.90;;
17662;SDS011;8950;56.892;15.090;2023-06-26T08:05:24;5.28;;;4.78;;
17662;SDS011;8950;56.892;15.090;2023-06-26T08:07:50;5.65;;;4.97;;
17662;SDS011;8950;56.892;15.090;2023-06-26T08:10:17;6.00;;;5.43;;
17662;SDS011;8950;56.892;15.090;2023-06-26T08:12:43;6.57;;;5.30;;
17662;SDS011;8950;56.892;15.090;2023-06-26T08:15:10;6.60;;;5.50;;
17662;SDS011;8950;56.892;15.090;2023-06-26T08:17:37;5.85;;;5.35;;
17662;SDS011;8950;56.892;15.090;2023-06-26T08:20:05;6.20;;;5.65;;
17662;SDS011;8950;56.892;15.090;2023-06-26T08:22:34;6.05;;;5.30;;
17662;SDS011;8950;56.892;15.090;2023-06-26T08:25:01;4.82;;;4.35;;
17662;SDS011;8950;56.892;15.090;2023-06-26T08:27:28;4.88;;;4.47;;
17662;SDS011;8950;56.892;15.090;2023-06-26T08:29:54;5.68;;;5.10;;
17662;SDS011;8950;56.892;15.090;2023-06-26T08:32:20;5.47;;;4.78;;
17662;SDS011;8950;56.892;15.090;2023-06-26T08:34:47;6.25;;;5.60;;
17662;SDS011;8950;56.892;15.090;2023-06-26T08:37:15;5.72;;;4.85;;
17662;SDS011;8950;56.892;15.090;2023-06-26T08:39:41;5.32;;;4.82;;
17662;SDS011;8950;56.892;15.090;2023-06-26T08:42:08;6.03;;;5.10;;
17662;SDS011;8950;56.892;15.090;2023-06-26T08:44:34;5.88;;;5.13;;
17662;SDS011;8950;56.892;15.090;2023-06-26T08:47:01;4.97;;;4.53;;
17662;SDS011;8950;56.892;15.090;2023-06-26T08:49:29;5.80;;;5.30;;
17662;SDS011;8950;56.892;15.090;2023-06-26T08:51:59;5.95;;;5.35;;
17662;SDS011;8950;56.892;15.090;2023-06-26T08:54:30;4.82;;;4.38;;
17662;SDS011;8950;56.892;15.090;2023-06-26T08:56:59;5.00;;;4.50;;
17662;SDS011;8950;56.892;15.090;2023-06-26T08:59:26;4.93;;;4.43;;
17662;SDS011;8950;56.892;15.090;2023-06-26T09:01:52;4.90;;;4.50;;
17662;SDS011;8950;56.892;15.090;2023-06-26T09:04:19;4.60;;;4.20;;
17662;SDS011;8950;56.892;15.090;2023-06-26T09:06:45;5.18;;;4.70;;
17662;SDS011;8950;56.892;15.090;2023-06-26T09:09:12;4.95;;;4.55;;
17662;SDS011;8950;56.892;15.090;2023-06-26T09:11:40;5.68;;;5.28;;
17662;SDS011;8950;56.892;15.090;2023-06-26T09:14:06;5.30;;;4.90;;
17662;SDS011;8950;56.892;15.090;2023-06-26T09:16:38;5.43;;;5.03;;
17662;SDS011;8950;56.892;15.090;2023-06-26T09:19:08;4.88;;;4.47;;
17662;SDS011;8950;56.892;15.090;2023-06-26T09:21:35;4.95;;;4.47;;
17662;SDS011;8950;56.892;15.090;2023-06-26T09:24:01;4.90;;;4.50;;
17662;SDS011;8950;56.892;15.090;2023-06-26T09:26:27;5.53;;;5.03;;
17662;SDS011;8950;56.892;15.090;2023-06-26T09:28:55;5.68;;;5.20;;
17662;SDS011;8950;56.892;15.090;2023-06-26T09:31:23;5.68;;;5.18;;
17662;SDS011;8950;56.892;15.090;2023-06-26T09:33:58;5.60;;;5.10;;
17662;SDS011;8950;56.892;15.090;2023-06-26T09:36:27;6.00;;;5.50;;
17662;SDS011;8950;56.892;15.090;2023-06-26T09:38:54;5.53;;;5.13;;
17662;SDS011;8950;56.892;15.090;2023-06-26T09:41:20;5.75;;;5.25;;
17662;SDS011;8950;56.892;15.090;2023-06-26T09:43:47;5.75;;;5.25;;
17662;SDS011;8950;56.892;15.090;2023-06-26T09:46:16;5.88;;;5.20;;
17662;SDS011;8950;56.892;15.090;2023-06-26T09:48:43;6.10;;;5.70;;
17662;SDS011;8950;56.892;15.090;2023-06-26T09:51:10;5.75;;;5.20;;
17662;SDS011;8950;56.892;15.090;2023-06-26T09:53:36;6.90;;;5.03;;
17662;SDS011;8950;56.892;15.090;2023-06-26T09:56:05;5.80;;;5.30;;
17662;SDS011;8950;56.892;15.090;2023-06-26T09:58:31;6.05;;;5.45;;
17662;SDS011;8950;56.892;15.090;2023-06-26T10:00:58;5.28;;;4.88;;
17662;SDS011;8950;56.892;15.090;2023-06-26T10:03:26;5.63;;;5.10;;
17662;SDS011;8950;56.892;15.090;2023-06-26T10:05:52;6.32;;;5.75;;
17662;SDS011;8950;56.892;15.090;2023-06-26T10:08:19;5.50;;;5.00;;
17662;SDS011;8950;56.892;15.090;2023-06-26T10:10:46;6.15;;;5.60;;
17662;SDS011;8950;56.892;15.090;2023-06-26T10:13:20;5.88;;;5.28;;
17662;SDS011;8950;56.892;15.090;2023-06-26T10:15:48;5.30;;;4.90;;
17662;SDS011;8950;56.892;15.090;2023-06-26T10:18:16;5.43;;;4.90;;
17662;SDS011;8950;56.892;15.090;2023-06-26T10:20:45;5.40;;;4.80;;
17662;SDS011;8950;56.892;15.090;2023-06-26T10:23:13;5.32;;;4.93;;
17662;SDS011;8950;56.892;15.090;2023-06-26T10:25:40;5.32;;;4.88;;
17662;SDS011;8950;56.892;15.090;2023-06-26T10:28:08;5.20;;;4.80;;
17662;SDS011;8950;56.892;15.090;2023-06-26T10:30:35;4.90;;;4.53;;
17662;SDS011;8950;56.892;15.090;2023-06-26T10:33:02;4.63;;;4.22;;
17662;SDS011;8950;56.892;15.090;2023-06-26T10:35:29;4.50;;;4.10;;
17662;SDS011;8950;56.892;15.090;2023-06-26T10:38:01;5.07;;;4.68;;
17662;SDS011;8950;56.892;15.090;2023-06-26T10:40:28;4.38;;;4.07;;
17662;SDS011;8950;56.892;15.090;2023-06-26T10:43:05;4.50;;;4.10;;
17662;SDS011;8950;56.892;15.090;2023-06-26T10:45:33;4.88;;;4.47;;
17662;SDS011;8950;56.892;15.090;2023-06-26T10:48:00;4.82;;;4.43;;
17662;SDS011;8950;56.892;15.090;2023-06-26T10:50:27;4.28;;;3.97;;
17662;SDS011;8950;56.892;15.090;2023-06-26T10:53:15;4.25;;;3.85;;
17662;SDS011;8950;56.892;15.090;2023-06-26T10:55:47;4.03;;;3.72;;
17662;SDS011;8950;56.892;15.090;2023-06-26T10:58:26;4.53;;;4.22;;
17662;SDS011;8950;56.892;15.090;2023-06-26T11:00:53;7.00;;;4.28;;
17662;SDS011;8950;56.892;15.090;2023-06-26T11:03:40;4.90;;;4.20;;
17662;SDS011;8950;56.892;15.090;2023-06-26T11:06:10;4.32;;;3.70;;
17662;SDS011;8950;56.892;15.090;2023-06-26T11:08:47;4.57;;;4.15;;
17662;SDS011;8950;56.892;15.090;2023-06-26T11:11:14;4.53;;;4.15;;
17662;SDS011;8950;56.892;15.090;2023-06-26T11:13:41;4.70;;;4.30;;
17662;SDS011;8950;56.892;15.090;2023-06-26T11:16:07;6.40;;;4.05;;
17662;SDS011;8950;56.892;15.090;2023-06-26T11:18:34;4.40;;;4.10;;
17662;SDS011;8950;56.892;15.090;2023-06-26T11:21:10;4.90;;;3.65;;
17662;SDS011;8950;56.892;15.090;2023-06-26T11:23:38;4.30;;;4.00;;
17662;SDS011;8950;56.892;15.090;2023-06-26T11:26:16;5.57;;;4.43;;
17662;SDS011;8950;56.892;15.090;2023-06-26T11:28:47;5.05;;;3.70;;
17662;SDS011;8950;56.892;15.090;2023-06-26T11:31:29;4.57;;;4.18;;
17662;SDS011;8950;56.892;15.090;2023-06-26T11:33:56;4.45;;;4.15;;
17662;SDS011;8950;56.892;15.090;2023-06-26T11:36:23;5.28;;;3.97;;
17662;SDS011;8950;56.892;15.090;2023-06-26T11:38:53;4.30;;;4.00;;
17662;SDS011;8950;56.892;15.090;2023-06-26T11:41:22;4.20;;;3.90;;
17662;SDS011;8950;56.892;15.090;2023-06-26T11:43:49;4.30;;;3.90;;
17662;SDS011;8950;56.892;15.090;2023-06-26T11:46:16;4.47;;;3.67;;
17662;SDS011;8950;56.892;15.090;2023-06-26T11:48:42;4.30;;;4.00;;
17662;SDS011;8950;56.892;15.090;2023-06-26T11:51:09;5.72;;;4.70;;
17662;SDS011;8950;56.892;15.090;2023-06-26T11:53:39;5.25;;;4.45;;
17662;SDS011;8950;56.892;15.090;2023-06-26T11:56:07;5.43;;;4.60;;
17662;SDS011;8950;56.892;15.090;2023-06-26T11:58:35;5.28;;;4.78;;
17662;SDS011;8950;56.892;15.090;2023-06-26T12:01:01;4.68;;;4.38;;
17662;SDS011;8950;56.892;15.090;2023-06-26T12:03:29;5.32;;;4.82;;
17662;SDS011;8950;56.892;15.090;2023-06-26T12:05:55;5.82;;;5.32;;
17662;SDS011;8950;56.892;15.090;2023-06-26T12:08:22;5.53;;;5.03;;
17662;SDS011;8950;56.892;15.090;2023-06-26T12:10:48;5.20;;;4.68;;
17662;SDS011;8950;56.892;15.090;2023-06-26T12:13:15;4.88;;;4.50;;
17662;SDS011;8950;56.892;15.090;2023-06-26T12:15:43;4.82;;;4.43;;
17662;SDS011;8950;56.892;15.090;2023-06-26T12:18:09;5.00;;;4.60;;
17662;SDS011;8950;56.892;15.090;2023-06-26T12:20:39;4.65;;;4.25;;
17662;SDS011;8950;56.892;15.090;2023-06-26T12:23:11;5.05;;;4.53;;
17662;SDS011;8950;56.892;15.090;2023-06-26T12:25:37;4.90;;;4.50;;
17662;SDS011;8950;56.892;15.090;2023-06-26T12:28:04;6.40;;;4.40;;
17662;SDS011;8950;56.892;15.090;2023-06-26T12:30:40;4.85;;;4.32;;
17662;SDS011;8950;56.892;15.090;2023-06-26T12:33:13;5.30;;;4.72;;
17662;SDS011;8950;56.892;15.090;2023-06-26T12:35:40;4.68;;;4.28;;
17662;SDS011;8950;56.892;15.090;2023-06-26T12:38:08;4.57;;;4.28;;
17662;SDS011;8950;56.892;15.090;2023-06-26T12:40:35;4.65;;;4.25;;
17662;SDS011;8950;56.892;15.090;2023-06-26T12:43:11;4.13;;;3.83;;
17662;SDS011;8950;56.892;15.090;2023-06-26T12:45:37;4.30;;;4.00;;
17662;SDS011;8950;56.892;15.090;2023-06-26T12:48:07;3.97;;;3.67;;
17662;SDS011;8950;56.892;15.090;2023-06-26T12:50:38;4.22;;;3.80;;
17662;SDS011;8950;56.892;15.090;2023-06-26T12:53:04;4.50;;;4.10;;
17662;SDS011;8950;56.892;15.090;2023-06-26T12:55:30;3.92;;;3.60;;
17662;SDS011;8950;56.892;15.090;2023-06-26T12:57:57;3.90;;;3.60;;
17662;SDS011;8950;56.892;15.090;2023-06-26T13:00:24;4.43;;;4.03;;
17662;SDS011;8950;56.892;15.090;2023-06-26T13:02:50;4.07;;;3.70;;
17662;SDS011;8950;56.892;15.090;2023-06-26T13:05:16;3.90;;;3.60;;
17662;SDS011;8950;56.892;15.090;2023-06-26T13:07:44;3.97;;;3.58;;
17662;SDS011;8950;56.892;15.090;2023-06-26T13:10:11;3.78;;;3.47;;
17662;SDS011;8950;56.892;15.090;2023-06-26T13:12:37;3.90;;;3.60;;
17662;SDS011;8950;56.892;15.090;2023-06-26T13:15:04;4.25;;;3.85;;
17662;SDS011;8950;56.892;15.090;2023-06-26T13:17:30;3.58;;;3.35;;
17662;SDS011;8950;56.892;15.090;2023-06-26T13:19:57;4.03;;;3.72;;
17662;SDS011;8950;56.892;15.090;2023-06-26T13:22:23;4.28;;;3.88;;
17662;SDS011;8950;56.892;15.090;2023-06-26T13:24:51;3.85;;;3.47;;
17662;SDS011;8950;56.892;15.090;2023-06-26T13:27:17;4.43;;;3.40;;
17662;SDS011;8950;56.892;15.090;2023-06-26T13:29:45;3.85;;;3.55;;
17662;SDS011;8950;56.892;15.090;2023-06-26T13:32:11;3.70;;;3.40;;
17662;SDS011;8950;56.892;15.090;2023-06-26T13:34:39;3.83;;;3.47;;
17662;SDS011;8950;56.892;15.090;2023-06-26T13:37:06;4.35;;;3.60;;
17662;SDS011;8950;56.892;15.090;2023-06-26T13:39:32;4.03;;;3.50;;
17662;SDS011;8950;56.892;15.090;2023-06-26T13:42:00;3.67;;;3.38;;
17662;SDS011;8950;56.892;15.090;2023-06-26T13:44:27;3.33;;;3.03;;
17662;SDS011;8950;56.892;15.090;2023-06-26T13:46:53;3.28;;;3.08;;
17662;SDS011;8950;56.892;15.090;2023-06-26T13:49:20;4.93;;;3.60;;
17662;SDS011;8950;56.892;15.090;2023-06-26T13:51:46;4.68;;;3.30;;
17662;SDS011;8950;56.892;15.090;2023-06-26T13:54:13;4.15;;;3.47;;
17662;SDS011;8950;56.892;15.090;2023-06-26T13:56:39;3.70;;;3.40;;
17662;SDS011;8950;56.892;15.090;2023-06-26T13:59:07;3.67;;;3.22;;
17662;SDS011;8950;56.892;15.090;2023-06-26T14:01:34;3.78;;;3.50;;
17662;SDS011;8950;56.892;15.090;2023-06-26T14:04:00;3.25;;;3.05;;
17662;SDS011;8950;56.892;15.090;2023-06-26T14:06:28;3.53;;;3.22;;
17662;SDS011;8950;56.892;15.090;2023-06-26T14:08:55;3.83;;;3.40;;
17662;SDS011;8950;56.892;15.090;2023-06-26T14:11:21;3.25;;;3.05;;
17662;SDS011;8950;56.892;15.090;2023-06-26T14:13:48;3.30;;;3.10;;
17662;SDS011;8950;56.892;15.090;2023-06-26T14:16:16;3.47;;;3.17;;
17662;SDS011;8950;56.892;15.090;2023-06-26T14:18:43;3.55;;;3.25;;
17662;SDS011;8950;56.892;15.090;2023-06-26T14:21:09;3.33;;;3.08;;
17662;SDS011;8950;56.892;15.090;2023-06-26T14:23:36;3.70;;;3.40;;
17662;SDS011;8950;56.892;15.090;2023-06-26T14:26:02;3.40;;;3.10;;
17662;SDS011;8950;56.892;15.090;2023-06-26T14:28:29;3.70;;;3.40;;
17662;SDS011;8950;56.892;15.090;2023-06-26T14:30:55;3.40;;;3.10;;
17662;SDS011;8950;56.892;15.090;2023-06-26T14:33:23;3.50;;;3.20;;
17662;SDS011;8950;56.892;15.090;2023-06-26T14:35:49;164.40;;;12.90;;
17662;SDS011;8950;56.892;15.090;2023-06-26T14:38:16;47.55;;;6.10;;
17662;SDS011;8950;56.892;15.090;2023-06-26T14:40:42;3.15;;;2.92;;
17662;SDS011;8950;56.892;15.090;2023-06-26T14:43:09;29.45;;;5.03;;
17662;SDS011;8950;56.892;15.090;2023-06-26T14:45:35;55.97;;;5.93;;
17662;SDS011;8950;56.892;15.090;2023-06-26T14:48:02;90.22;;;7.15;;
17662;SDS011;8950;56.892;15.090;2023-06-26T14:50:30;53.05;;;5.00;;